Time;durP1;ratioP1;P1;durP2;ratioP2;P2;SDS_P1;SDS_P2;PMS_P1;PMS_P2;Temp;Humidity;BMP_temperature;BMP_pressure;BME280_temperature;BME280_humidity;BME280_pressure;Samples;Min_cycle;Max_cycle;Signal;HPM_P1;HPM_P2
2023/12/02 00:02:20;;;;;;;;;;;;;;;;;;5090011;28;20354;-47
2023/12/02 00:04:47;;;;;;;;;;;;;;;;;;5092725;28;19912;-48
2023/12/02 00:07:13;;;;;;;;;;;;;;;;;;5092311;28;19912;-48
2023/12/02 00:09:39;;;;;;;;;;;;;;;;;;5093903;28;20273;-50
2023/12/02 00:12:05;;;;;;;;;;;;;;;;;;5092557;28;19912;-51
2023/12/02 00:14:31;;;;;;;;;;;;;;;;;;5090995;28;19919;-47
2023/12/02 00:16:57;;;;;;;;;;;;;;;;;;5089716;28;20033;-49
2023/12/02 00:19:23;;;;;;;;;;;;;;;;;;5073701;28;19913;-50
2023/12/02 00:21:50;;;;;;;;;;;;;;;;;;5073422;28;19927;-51
2023/12/02 00:24:16;;;;;;;;;;;;;;;;;;5076696;28;19912;-50
2023/12/02 00:26:42;;;;;;;;;;;;;;;;;;5075453;28;19919;-48
2023/12/02 00:29:08;;;;;;;;;;;;;;;;;;5093895;28;19922;-51
2023/12/02 00:31:34;;;;;;;;;;;;;;;;;;5092269;28;20058;-48
2023/12/02 00:34:00;;;;;;;;;;;;;;;;;;5092220;28;19923;-47
2023/12/02 00:36:26;;;;;;;;;;;;;;;;;;5093723;28;19912;-49
2023/12/02 00:38:52;;;;;;;;;;;;;;;;;;5093429;28;20383;-50
2023/12/02 00:41:18;;;;;;;;;;;;;;;;;;5076073;28;20331;-51
2023/12/02 00:43:45;;;;;;;;;;;;;;;;;;5073059;28;19954;-47
2023/12/02 00:46:11;;;;;;;;;;;;;;;;;;5071281;28;19919;-48
2023/12/02 00:48:37;;;;;;;;;;;;;;;;;;5073126;28;19942;-50
2023/12/02 00:51:03;;;;;;;;;;;;;;;;;;5072943;28;19920;-53
2023/12/02 00:53:29;;;;;;;;;;;;;;;;;;5071457;28;19916;-50
2023/12/02 00:55:55;;;;;;;;;;;;;;;;;;5072817;28;19913;-50
2023/12/02 00:58:21;;;;;;;;;;;;;;;;;;5071508;28;20403;-49
2023/12/02 01:00:48;;;;;;;;;;;;;;;;;;5072725;28;20289;-51
2023/12/02 01:03:14;;;;;;;;;;;;;;;;;;5071530;28;19919;-50
2023/12/02 01:05:40;;;;;;;;;;;;;;;;;;5070988;28;19974;-51
2023/12/02 01:08:06;;;;;;;;;;;;;;;;;;5072713;28;19946;-47
2023/12/02 01:10:32;;;;;;;;;;;;;;;;;;5080253;28;19912;-51
2023/12/02 01:12:58;;;;;;;;;;;;;;;;;;5091277;28;20088;-48
2023/12/02 01:15:24;;;;;;;;;;;;;;;;;;5086268;28;19923;-50
2023/12/02 01:17:50;;;;;;;;;;;;;;;;;;5072520;28;20005;-48
2023/12/02 01:20:16;;;;;;;;;;;;;;;;;;5072431;28;19966;-49
2023/12/02 01:22:42;;;;;;;;;;;;;;;;;;5072374;28;19912;-51
2023/12/02 01:25:08;;;;;;;;;;;;;;;;;;5071413;28;20288;-49
2023/12/02 01:27:34;;;;;;;;;;;;;;;;;;5071595;28;19951;-51
2023/12/02 01:30:00;;;;;;;;;;;;;;;;;;5071639;28;19912;-48
2023/12/02 01:32:26;;;;;;;;;;;;;;;;;;5070153;28;19920;-48
2023/12/02 01:34:52;;;;;;;;;;;;;;;;;;5070087;28;19922;-50
2023/12/02 01:37:18;;;;;;;;;;;;;;;;;;5071357;28;19955;-50
2023/12/02 01:39:44;;;;;;;;;;;;;;;;;;5071351;28;19913;-49
2023/12/02 01:42:10;;;;;;;;;;;;;;;;;;5072023;28;19913;-49
2023/12/02 01:44:36;;;;;;;;;;;;;;;;;;5072369;28;19912;-48
2023/12/02 01:47:03;;;;;;;;;;;;;;;;;;5078346;28;19919;-48
2023/12/02 01:49:30;;;;;;;;;;;;;;;;;;5072162;28;19913;-50
2023/12/02 01:51:56;;;;;;;;;;;;;;;;;;5071950;28;20365;-50
2023/12/02 01:54:22;;;;;;;;;;;;;;;;;;5074536;28;19939;-50
2023/12/02 01:56:48;;;;;;;;;;;;;;;;;;5092412;28;19939;-50
2023/12/02 01:59:28;;;;;;;;;;;;;;;;;;5076136;28;19920;-48
2023/12/02 02:01:54;;;;;;;;;;;;;;;;;;5090809;28;19912;-48
2023/12/02 02:04:20;;;;;;;;;;;;;;;;;;5090940;28;20004;-49
2023/12/02 02:06:46;;;;;;;;;;;;;;;;;;5074276;28;20365;-47
2023/12/02 02:09:12;;;;;;;;;;;;;;;;;;5085325;28;19908;-50
2023/12/02 02:11:38;;;;;;;;;;;;;;;;;;5090940;28;19923;-51
2023/12/02 02:14:04;;;;;;;;;;;;;;;;;;5090660;28;19916;-50
2023/12/02 02:16:30;;;;;;;;;;;;;;;;;;5090728;28;19912;-49
2023/12/02 02:18:56;;;;;;;;;;;;;;;;;;5092029;28;19919;-47
2023/12/02 02:21:22;;;;;;;;;;;;;;;;;;5090555;28;19908;-48
2023/12/02 02:23:48;;;;;;;;;;;;;;;;;;5092133;28;19918;-48
2023/12/02 02:26:14;;;;;;;;;;;;;;;;;;5092011;28;19961;-47
2023/12/02 02:28:40;;;;;;;;;;;;;;;;;;5090697;28;20376;-49
2023/12/02 02:31:06;;;;;;;;;;;;;;;;;;5091754;28;19963;-48
2023/12/02 02:33:32;;;;;;;;;;;;;;;;;;5091801;28;19912;-47
2023/12/02 02:35:58;;;;;;;;;;;;;;;;;;5089955;28;20003;-50
2023/12/02 02:38:24;;;;;;;;;;;;;;;;;;5083802;28;20395;-49
2023/12/02 02:40:50;;;;;;;;;;;;;;;;;;5075534;28;19913;-48
2023/12/02 02:43:16;;;;;;;;;;;;;;;;;;5075585;28;20262;-48
2023/12/02 02:45:42;;;;;;;;;;;;;;;;;;5083337;28;19919;-48
2023/12/02 02:48:08;;;;;;;;;;;;;;;;;;5095080;28;19915;-49
2023/12/02 02:50:35;;;;;;;;;;;;;;;;;;5094937;28;19912;-48
2023/12/02 02:53:01;;;;;;;;;;;;;;;;;;5095319;28;19915;-49
2023/12/02 02:55:27;;;;;;;;;;;;;;;;;;5094174;28;19916;-51
2023/12/02 02:57:53;;;;;;;;;;;;;;;;;;5093808;28;19913;-50
2023/12/02 03:00:19;;;;;;;;;;;;;;;;;;5093452;28;19934;-48
2023/12/02 03:02:45;;;;;;;;;;;;;;;;;;5093278;28;19919;-51
2023/12/02 03:05:11;;;;;;;;;;;;;;;;;;5093258;28;19912;-50
2023/12/02 03:07:37;;;;;;;;;;;;;;;;;;5094007;28;20014;-51
2023/12/02 03:10:03;;;;;;;;;;;;;;;;;;5093195;28;19908;-48
2023/12/02 03:12:29;;;;;;;;;;;;;;;;;;5095080;28;19958;-48
2023/12/02 03:14:55;;;;;;;;;;;;;;;;;;5095061;28;19923;-49
2023/12/02 03:17:21;;;;;;;;;;;;;;;;;;5094047;28;20014;-48
2023/12/02 03:19:47;;;;;;;;;;;;;;;;;;5077314;28;19921;-50
2023/12/02 03:22:14;;;;;;;;;;;;;;;;;;5074683;28;19912;-51
2023/12/02 03:24:40;;;;;;;;;;;;;;;;;;5074822;28;19912;-49
2023/12/02 03:27:06;;;;;;;;;;;;;;;;;;5073478;28;19912;-48
2023/12/02 03:29:32;;;;;;;;;;;;;;;;;;5075380;28;20347;-48
2023/12/02 03:31:58;;;;;;;;;;;;;;;;;;5094787;28;19916;-48
2023/12/02 03:34:24;;;;;;;;;;;;;;;;;;5094812;28;20289;-47
2023/12/02 03:36:50;;;;;;;;;;;;;;;;;;5094900;28;20335;-47
2023/12/02 03:39:16;;;;;;;;;;;;;;;;;;5093611;28;19912;-47
2023/12/02 03:41:42;;;;;;;;;;;;;;;;;;5094564;28;20415;-47
2023/12/02 03:44:08;;;;;;;;;;;;;;;;;;5093496;28;19920;-48
2023/12/02 03:46:34;;;;;;;;;;;;;;;;;;5093046;28;19912;-48
2023/12/02 03:49:00;;;;;;;;;;;;;;;;;;5074961;28;19915;-48
2023/12/02 03:51:27;;;;;;;;;;;;;;;;;;5094104;28;19955;-48
2023/12/02 03:53:53;;;;;;;;;;;;;;;;;;5092800;28;19922;-49
2023/12/02 03:56:20;;;;;;;;;;;;;;;;;;5093208;28;19962;-48
2023/12/02 03:58:46;;;;;;;;;;;;;;;;;;5094361;28;20254;-47
2023/12/02 04:01:12;;;;;;;;;;;;;;;;;;5095039;28;19914;-47
2023/12/02 04:03:38;;;;;;;;;;;;;;;;;;5095160;28;20322;-48
2023/12/02 04:06:05;;;;;;;;;;;;;;;;;;5101264;28;19941;-48
2023/12/02 04:08:31;;;;;;;;;;;;;;;;;;5107270;28;19912;-48
2023/12/02 04:10:57;;;;;;;;;;;;;;;;;;5089099;28;20007;-50
2023/12/02 04:13:23;;;;;;;;;;;;;;;;;;5074224;28;19958;-48
2023/12/02 04:15:50;;;;;;;;;;;;;;;;;;5092544;28;20031;-48
2023/12/02 04:18:16;;;;;;;;;;;;;;;;;;5078340;28;19962;-49
2023/12/02 04:20:42;;;;;;;;;;;;;;;;;;5073412;28;19913;-50
2023/12/02 04:23:08;;;;;;;;;;;;;;;;;;5073632;28;19912;-48
2023/12/02 04:25:34;;;;;;;;;;;;;;;;;;5077307;28;19918;-51
2023/12/02 04:28:00;;;;;;;;;;;;;;;;;;5075569;28;20015;-49
2023/12/02 04:30:27;;;;;;;;;;;;;;;;;;5078198;28;19945;-47
2023/12/02 04:32:53;;;;;;;;;;;;;;;;;;5113825;28;19912;-48
2023/12/02 04:35:19;;;;;;;;;;;;;;;;;;5106793;28;19912;-48
2023/12/02 04:37:45;;;;;;;;;;;;;;;;;;5093506;28;19919;-47
2023/12/02 04:40:11;;;;;;;;;;;;;;;;;;5102498;28;19912;-49
2023/12/02 04:42:37;;;;;;;;;;;;;;;;;;5093286;28;19916;-49
2023/12/02 04:45:03;;;;;;;;;;;;;;;;;;5103770;28;19916;-50
2023/12/02 04:47:29;;;;;;;;;;;;;;;;;;5113555;28;19969;-51
2023/12/02 04:49:56;;;;;;;;;;;;;;;;;;5094566;28;20061;-48
2023/12/02 04:52:22;;;;;;;;;;;;;;;;;;5098676;28;19912;-49
2023/12/02 04:54:48;;;;;;;;;;;;;;;;;;5093943;28;19943;-51
2023/12/02 04:57:14;;;;;;;;;;;;;;;;;;5112908;27;19918;-50
2023/12/02 04:59:40;;;;;;;;;;;;;;;;;;5110461;28;19912;-49
2023/12/02 05:02:06;;;;;;;;;;;;;;;;;;5113262;28;19912;-48
2023/12/02 05:04:32;;;;;;;;;;;;;;;;;;5113397;28;19912;-51
2023/12/02 05:06:58;;;;;;;;;;;;;;;;;;5113418;28;19950;-49
2023/12/02 05:09:24;;;;;;;;;;;;;;;;;;5112099;28;19965;-50
2023/12/02 05:11:50;;;;;;;;;;;;;;;;;;5113169;28;19931;-48
2023/12/02 05:14:16;;;;;;;;;;;;;;;;;;5112999;28;19916;-49
2023/12/02 05:16:43;;;;;;;;;;;;;;;;;;5094937;28;19919;-51
2023/12/02 05:19:09;;;;;;;;;;;;;;;;;;5112979;28;20397;-51
2023/12/02 05:21:35;;;;;;;;;;;;;;;;;;5111745;28;20292;-51
2023/12/02 05:24:01;;;;;;;;;;;;;;;;;;5094784;28;19911;-50
2023/12/02 05:26:27;;;;;;;;;;;;;;;;;;5111765;28;19919;-49
2023/12/02 05:28:53;;;;;;;;;;;;;;;;;;5112850;28;20426;-51
2023/12/02 05:31:19;;;;;;;;;;;;;;;;;;5112758;28;20380;-49
2023/12/02 05:33:45;;;;;;;;;;;;;;;;;;5112856;28;19911;-48
2023/12/02 05:36:11;;;;;;;;;;;;;;;;;;5113095;28;19916;-48
2023/12/02 05:38:37;;;;;;;;;;;;;;;;;;5094905;28;19915;-50
2023/12/02 05:41:04;;;;;;;;;;;;;;;;;;5112679;28;19916;-48
2023/12/02 05:43:30;;;;;;;;;;;;;;;;;;5111242;28;20394;-50
2023/12/02 05:45:56;;;;;;;;;;;;;;;;;;5112674;28;20300;-51
2023/12/02 05:48:22;;;;;;;;;;;;;;;;;;5112719;28;20330;-49
2023/12/02 05:50:48;;;;;;;;;;;;;;;;;;5111334;28;20303;-47
2023/12/02 05:53:14;;;;;;;;;;;;;;;;;;5112577;28;19919;-48
2023/12/02 05:55:40;;;;;;;;;;;;;;;;;;5112549;28;19916;-48
2023/12/02 05:58:06;;;;;;;;;;;;;;;;;;5094500;28;19919;-49
2023/12/02 06:00:32;;;;;;;;;;;;;;;;;;5111448;28;19912;-52
2023/12/02 06:02:58;;;;;;;;;;;;;;;;;;5112776;28;19915;-49
2023/12/02 06:05:24;;;;;;;;;;;;;;;;;;5111413;28;19935;-50
2023/12/02 06:07:50;;;;;;;;;;;;;;;;;;5111587;28;20337;-48
2023/12/02 06:10:16;;;;;;;;;;;;;;;;;;5113585;28;19919;-49
2023/12/02 06:12:42;;;;;;;;;;;;;;;;;;5116491;28;19915;-51
2023/12/02 06:15:10;;;;;;;;;;;;;;;;;;5115385;28;19922;-47
2023/12/02 06:17:36;;;;;;;;;;;;;;;;;;5116644;28;19934;-48
2023/12/02 06:20:02;;;;;;;;;;;;;;;;;;5116575;28;20356;-48
2023/12/02 06:22:28;;;;;;;;;;;;;;;;;;5116179;28;19915;-47
2023/12/02 06:24:54;;;;;;;;;;;;;;;;;;5116389;28;19912;-48
2023/12/02 06:27:20;;;;;;;;;;;;;;;;;;5088377;28;19920;-49
2023/12/02 06:29:46;;;;;;;;;;;;;;;;;;5083476;28;19913;-48
2023/12/02 06:32:12;;;;;;;;;;;;;;;;;;5084408;28;19912;-46
2023/12/02 06:34:38;;;;;;;;;;;;;;;;;;5078363;28;19923;-47
2023/12/02 06:37:05;;;;;;;;;;;;;;;;;;5082104;28;19912;-48
2023/12/02 06:39:31;;;;;;;;;;;;;;;;;;5079420;28;20387;-48
2023/12/02 06:41:57;;;;;;;;;;;;;;;;;;5081687;28;20280;-47
2023/12/02 06:44:23;;;;;;;;;;;;;;;;;;5080509;28;19912;-47
2023/12/02 06:46:49;;;;;;;;;;;;;;;;;;5080984;28;19931;-47
2023/12/02 06:49:15;;;;;;;;;;;;;;;;;;5081462;28;19912;-50
2023/12/02 06:51:41;;;;;;;;;;;;;;;;;;5061701;28;19919;-50
2023/12/02 06:54:07;;;;;;;;;;;;;;;;;;5082072;28;19968;-48
2023/12/02 06:56:33;;;;;;;;;;;;;;;;;;5077142;28;19913;-50
2023/12/02 06:58:59;;;;;;;;;;;;;;;;;;5083416;28;19913;-50
2023/12/02 07:01:26;;;;;;;;;;;;;;;;;;5076514;28;19912;-49
2023/12/02 07:03:52;;;;;;;;;;;;;;;;;;5084009;28;19920;-50
2023/12/02 07:06:18;;;;;;;;;;;;;;;;;;5076605;28;20019;-50
2023/12/02 07:08:44;;;;;;;;;;;;;;;;;;5084064;28;19928;-50
2023/12/02 07:11:10;;;;;;;;;;;;;;;;;;5077742;28;20006;-50
2023/12/02 07:13:36;;;;;;;;;;;;;;;;;;5083676;28;19912;-50
2023/12/02 07:16:02;;;;;;;;;;;;;;;;;;5076473;28;19913;-52
2023/12/02 07:18:28;;;;;;;;;;;;;;;;;;5083802;28;20011;-48
2023/12/02 07:20:54;;;;;;;;;;;;;;;;;;5075887;28;19913;-50
2023/12/02 07:23:20;;;;;;;;;;;;;;;;;;5083088;28;19958;-49
2023/12/02 07:25:46;;;;;;;;;;;;;;;;;;5074644;28;19920;-48
2023/12/02 07:28:12;;;;;;;;;;;;;;;;;;5084790;28;20061;-48
2023/12/02 07:30:38;;;;;;;;;;;;;;;;;;5075069;28;19916;-52
2023/12/02 07:33:04;;;;;;;;;;;;;;;;;;5085691;28;19913;-51
2023/12/02 07:35:31;;;;;;;;;;;;;;;;;;5074705;28;20015;-49
2023/12/02 07:37:57;;;;;;;;;;;;;;;;;;5087465;28;19913;-47
2023/12/02 07:40:23;;;;;;;;;;;;;;;;;;5074443;28;19999;-50
2023/12/02 07:42:49;;;;;;;;;;;;;;;;;;5085779;28;19964;-49
2023/12/02 07:45:15;;;;;;;;;;;;;;;;;;5074454;28;19916;-48
2023/12/02 07:47:41;;;;;;;;;;;;;;;;;;5067907;28;20002;-48
2023/12/02 07:50:07;;;;;;;;;;;;;;;;;;5074442;28;19912;-48
2023/12/02 07:52:33;;;;;;;;;;;;;;;;;;5067668;28;20010;-49
2023/12/02 07:54:59;;;;;;;;;;;;;;;;;;5074144;28;19920;-48
2023/12/02 07:57:26;;;;;;;;;;;;;;;;;;5084606;28;19998;-48
2023/12/02 07:59:52;;;;;;;;;;;;;;;;;;5075199;28;20004;-51
2023/12/02 08:02:18;;;;;;;;;;;;;;;;;;5083495;28;19923;-49
2023/12/02 08:04:44;;;;;;;;;;;;;;;;;;5076156;28;19913;-50
2023/12/02 08:07:10;;;;;;;;;;;;;;;;;;5073962;28;19912;-48
2023/12/02 08:09:36;;;;;;;;;;;;;;;;;;5071857;28;19952;-49
2023/12/02 08:12:02;;;;;;;;;;;;;;;;;;5073506;28;19919;-51
2023/12/02 08:14:28;;;;;;;;;;;;;;;;;;5073321;28;19955;-49
2023/12/02 08:16:54;;;;;;;;;;;;;;;;;;5073833;28;19916;-47
2023/12/02 08:19:20;;;;;;;;;;;;;;;;;;5073726;28;19912;-49
2023/12/02 08:21:47;;;;;;;;;;;;;;;;;;5073458;28;20499;-50
2023/12/02 08:24:13;;;;;;;;;;;;;;;;;;5055606;28;20011;-50
2023/12/02 08:26:39;;;;;;;;;;;;;;;;;;5072322;28;19913;-49
2023/12/02 08:29:05;;;;;;;;;;;;;;;;;;5073559;28;20420;-48
2023/12/02 08:31:32;;;;;;;;;;;;;;;;;;5072101;28;19912;-48
2023/12/02 08:33:58;;;;;;;;;;;;;;;;;;5072301;28;19928;-47
2023/12/02 08:36:24;;;;;;;;;;;;;;;;;;5073277;28;19912;-47
2023/12/02 08:38:50;;;;;;;;;;;;;;;;;;5073230;28;19912;-49
2023/12/02 08:41:16;;;;;;;;;;;;;;;;;;5073091;28;19912;-51
2023/12/02 08:43:42;;;;;;;;;;;;;;;;;;5073074;28;20292;-47
2023/12/02 08:46:08;;;;;;;;;;;;;;;;;;5073207;28;20296;-47
2023/12/02 08:48:34;;;;;;;;;;;;;;;;;;5073197;28;20300;-47
2023/12/02 08:51:00;;;;;;;;;;;;;;;;;;5072846;28;19912;-48
2023/12/02 08:53:26;;;;;;;;;;;;;;;;;;5072818;28;20296;-48
2023/12/02 08:55:52;;;;;;;;;;;;;;;;;;5072948;28;19916;-49
2023/12/02 08:58:18;;;;;;;;;;;;;;;;;;5073026;28;19916;-48
2023/12/02 09:00:45;;;;;;;;;;;;;;;;;;5072760;28;19994;-51
2023/12/02 09:03:11;;;;;;;;;;;;;;;;;;5072948;28;19920;-47
2023/12/02 09:05:37;;;;;;;;;;;;;;;;;;5072573;28;20384;-49
2023/12/02 09:08:03;;;;;;;;;;;;;;;;;;5072633;28;20297;-49
2023/12/02 09:10:29;;;;;;;;;;;;;;;;;;5072739;28;19913;-47
2023/12/02 09:12:55;;;;;;;;;;;;;;;;;;5072720;28;19935;-47
2023/12/02 09:15:21;;;;;;;;;;;;;;;;;;5072868;28;19917;-47
2023/12/02 09:17:47;;;;;;;;;;;;;;;;;;5072582;28;20389;-47
2023/12/02 09:20:13;;;;;;;;;;;;;;;;;;5072582;28;20381;-47
2023/12/02 09:22:39;;;;;;;;;;;;;;;;;;5072544;28;19912;-47
2023/12/02 09:25:06;;;;;;;;;;;;;;;;;;5072568;28;19912;-46
2023/12/02 09:27:32;;;;;;;;;;;;;;;;;;5072509;28;19919;-47
2023/12/02 09:29:58;;;;;;;;;;;;;;;;;;5072406;28;20345;-46
2023/12/02 09:32:24;;;;;;;;;;;;;;;;;;5072326;28;20411;-47
2023/12/02 09:34:50;;;;;;;;;;;;;;;;;;5072238;28;19923;-50
2023/12/02 09:37:16;;;;;;;;;;;;;;;;;;5072281;28;19920;-49
2023/12/02 09:39:43;;;;;;;;;;;;;;;;;;5072383;28;19973;-47
2023/12/02 09:42:09;;;;;;;;;;;;;;;;;;5072182;28;19924;-47
2023/12/02 09:44:35;;;;;;;;;;;;;;;;;;5072152;28;19912;-48
2023/12/02 09:47:01;;;;;;;;;;;;;;;;;;5072064;28;19913;-46
2023/12/02 09:49:27;;;;;;;;;;;;;;;;;;5070894;28;19916;-47
2023/12/02 09:51:53;;;;;;;;;;;;;;;;;;5072016;28;20392;-46
2023/12/02 09:54:20;;;;;;;;;;;;;;;;;;5071854;28;20274;-47
2023/12/02 09:56:48;;;;;;;;;;;;;;;;;;5071616;28;20309;-47
2023/12/02 09:59:14;;;;;;;;;;;;;;;;;;5072235;28;20015;-47
2023/12/02 10:01:40;;;;;;;;;;;;;;;;;;5071873;28;19912;-48
2023/12/02 10:04:06;;;;;;;;;;;;;;;;;;5072008;28;19913;-48
2023/12/02 10:06:32;;;;;;;;;;;;;;;;;;5072577;28;19955;-46
2023/12/02 10:08:59;;;;;;;;;;;;;;;;;;5070874;28;19969;-47
2023/12/02 10:11:25;;;;;;;;;;;;;;;;;;5071891;28;19916;-50
2023/12/02 10:13:51;;;;;;;;;;;;;;;;;;5072310;28;19912;-46
2023/12/02 10:16:17;;;;;;;;;;;;;;;;;;5072388;28;19913;-46
2023/12/02 10:18:43;;;;;;;;;;;;;;;;;;5071784;28;19948;-50
2023/12/02 10:21:09;;;;;;;;;;;;;;;;;;5071672;28;19913;-47
2023/12/02 10:23:35;;;;;;;;;;;;;;;;;;5071844;28;19913;-47
2023/12/02 10:26:01;;;;;;;;;;;;;;;;;;5071931;28;19913;-47
2023/12/02 10:28:28;;;;;;;;;;;;;;;;;;5071868;28;19919;-47
2023/12/02 10:30:54;;;;;;;;;;;;;;;;;;5071517;28;19919;-46
2023/12/02 10:33:20;;;;;;;;;;;;;;;;;;5071916;28;19913;-47
2023/12/02 10:35:46;;;;;;;;;;;;;;;;;;5071868;28;20007;-47
2023/12/02 10:38:13;;;;;;;;;;;;;;;;;;5071722;28;19912;-47
2023/12/02 10:40:39;;;;;;;;;;;;;;;;;;5071625;28;19958;-47
2023/12/02 10:43:05;;;;;;;;;;;;;;;;;;5071702;28;19959;-50
2023/12/02 10:45:31;;;;;;;;;;;;;;;;;;5071409;28;19944;-50
2023/12/02 10:47:57;;;;;;;;;;;;;;;;;;5071736;28;19912;-50
2023/12/02 10:50:23;;;;;;;;;;;;;;;;;;5071627;28;19913;-49
2023/12/02 10:52:49;;;;;;;;;;;;;;;;;;5071557;28;19915;-47
2023/12/02 10:55:15;;;;;;;;;;;;;;;;;;5070282;28;20426;-47
2023/12/02 10:57:41;;;;;;;;;;;;;;;;;;5073051;28;19909;-50
2023/12/02 11:00:07;;;;;;;;;;;;;;;;;;5075025;28;20388;-47
2023/12/02 11:02:33;;;;;;;;;;;;;;;;;;5074144;28;19940;-48
2023/12/02 11:05:02;;;;;;;;;;;;;;;;;;5075124;28;19913;-47
2023/12/02 11:07:28;;;;;;;;;;;;;;;;;;5075293;28;19924;-48
2023/12/02 11:09:54;;;;;;;;;;;;;;;;;;5075162;28;19909;-48
2023/12/02 11:12:20;;;;;;;;;;;;;;;;;;5074932;28;20407;-47
2023/12/02 11:14:46;;;;;;;;;;;;;;;;;;5074785;28;20420;-47
2023/12/02 11:17:12;;;;;;;;;;;;;;;;;;5074886;28;19913;-51
2023/12/02 11:19:38;;;;;;;;;;;;;;;;;;5074833;28;19923;-48
2023/12/02 11:22:05;;;;;;;;;;;;;;;;;;5074757;28;19919;-49
2023/12/02 11:24:31;;;;;;;;;;;;;;;;;;5074870;28;19912;-47
2023/12/02 11:26:57;;;;;;;;;;;;;;;;;;5074977;28;19912;-50
2023/12/02 11:29:23;;;;;;;;;;;;;;;;;;5074842;28;20365;-47
2023/12/02 11:31:49;;;;;;;;;;;;;;;;;;5074498;28;19966;-47
2023/12/02 11:34:15;;;;;;;;;;;;;;;;;;5074509;28;20353;-47
2023/12/02 11:36:41;;;;;;;;;;;;;;;;;;5074642;28;20278;-51
2023/12/02 11:39:08;;;;;;;;;;;;;;;;;;5074701;28;20447;-47
2023/12/02 11:41:34;;;;;;;;;;;;;;;;;;5074468;28;19966;-48
2023/12/02 11:44:00;;;;;;;;;;;;;;;;;;5074838;28;19975;-47
2023/12/02 11:46:26;;;;;;;;;;;;;;;;;;5074506;28;19915;-48
2023/12/02 11:48:52;;;;;;;;;;;;;;;;;;5074471;28;19912;-48
2023/12/02 11:51:19;;;;;;;;;;;;;;;;;;5074188;28;19950;-48
2023/12/02 11:53:45;;;;;;;;;;;;;;;;;;5079614;28;19916;-47
2023/12/02 11:56:11;;;;;;;;;;;;;;;;;;5106067;28;20056;-47
2023/12/02 11:58:37;;;;;;;;;;;;;;;;;;5110048;28;19912;-48
2023/12/02 12:01:03;;;;;;;;;;;;;;;;;;5106320;27;19918;-50
2023/12/02 12:03:30;;;;;;;;;;;;;;;;;;5094321;28;19990;-49
2023/12/02 12:05:57;;;;;;;;;;;;;;;;;;5105384;28;19966;-47
2023/12/02 12:08:23;;;;;;;;;;;;;;;;;;5106212;28;19912;-47
2023/12/02 12:10:49;;;;;;;;;;;;;;;;;;5094118;28;19919;-48
2023/12/02 12:13:15;;;;;;;;;;;;;;;;;;5086946;28;19995;-47
2023/12/02 12:15:42;;;;;;;;;;;;;;;;;;5073835;28;20015;-47
2023/12/02 12:18:10;;;;;;;;;;;;;;;;;;5073925;28;19916;-49
2023/12/02 12:20:36;;;;;;;;;;;;;;;;;;5091022;28;19924;-48
2023/12/02 12:23:02;;;;;;;;;;;;;;;;;;5114372;28;19908;-46
2023/12/02 12:25:29;;;;;;;;;;;;;;;;;;5083382;28;19984;-47
2023/12/02 12:27:55;;;;;;;;;;;;;;;;;;5093581;28;19962;-47
2023/12/02 12:30:21;;;;;;;;;;;;;;;;;;5103184;28;19912;-47
2023/12/02 12:32:47;;;;;;;;;;;;;;;;;;5112998;28;20303;-47
2023/12/02 12:35:16;;;;;;;;;;;;;;;;;;5112538;28;20371;-47
2023/12/02 12:37:42;;;;;;;;;;;;;;;;;;5094736;27;19920;-47
2023/12/02 12:40:09;;;;;;;;;;;;;;;;;;5093522;28;19999;-47
2023/12/02 12:42:35;;;;;;;;;;;;;;;;;;5086467;28;19913;-46
2023/12/02 12:45:02;;;;;;;;;;;;;;;;;;5071366;28;20368;-48
2023/12/02 12:47:30;;;;;;;;;;;;;;;;;;5070361;28;20404;-48
2023/12/02 12:49:56;;;;;;;;;;;;;;;;;;5082899;28;20006;-50
2023/12/02 12:52:22;;;;;;;;;;;;;;;;;;5091550;28;19973;-49
2023/12/02 12:54:48;;;;;;;;;;;;;;;;;;5083322;28;19931;-49
2023/12/02 12:57:14;;;;;;;;;;;;;;;;;;5104364;28;19947;-48
2023/12/02 12:59:40;;;;;;;;;;;;;;;;;;5099577;28;20391;-49
2023/12/02 13:02:06;;;;;;;;;;;;;;;;;;5096622;28;19912;-46
2023/12/02 13:04:33;;;;;;;;;;;;;;;;;;5086898;28;19916;-49
2023/12/02 13:06:59;;;;;;;;;;;;;;;;;;5085440;28;20372;-47
2023/12/02 13:09:25;;;;;;;;;;;;;;;;;;5100636;28;20002;-47
2023/12/02 13:11:51;;;;;;;;;;;;;;;;;;5105667;28;19970;-47
2023/12/02 13:14:17;;;;;;;;;;;;;;;;;;5097833;28;20011;-47
2023/12/02 13:16:43;;;;;;;;;;;;;;;;;;5090189;28;20003;-47
2023/12/02 13:19:09;;;;;;;;;;;;;;;;;;5110646;28;19919;-47
2023/12/02 13:21:35;;;;;;;;;;;;;;;;;;5110953;28;19908;-47
2023/12/02 13:24:02;;;;;;;;;;;;;;;;;;5091400;28;19916;-47
2023/12/02 13:26:28;;;;;;;;;;;;;;;;;;5108787;28;19916;-48
2023/12/02 13:28:54;;;;;;;;;;;;;;;;;;5091625;28;20593;-48
2023/12/02 13:31:20;;;;;;;;;;;;;;;;;;5101415;28;19915;-47
2023/12/02 13:33:46;;;;;;;;;;;;;;;;;;5094884;28;20560;-47
2023/12/02 13:36:12;;;;;;;;;;;;;;;;;;5091085;28;19923;-47
2023/12/02 13:38:39;;;;;;;;;;;;;;;;;;5074561;28;19913;-47
2023/12/02 13:41:05;;;;;;;;;;;;;;;;;;5092027;28;20556;-48
2023/12/02 13:43:31;;;;;;;;;;;;;;;;;;5091079;28;20551;-48
2023/12/02 13:45:58;;;;;;;;;;;;;;;;;;5091099;28;19923;-47
2023/12/02 13:48:24;;;;;;;;;;;;;;;;;;5107495;28;19935;-48
2023/12/02 13:50:50;;;;;;;;;;;;;;;;;;5090810;28;20030;-47
2023/12/02 13:53:16;;;;;;;;;;;;;;;;;;5088724;28;20369;-48
2023/12/02 13:55:42;;;;;;;;;;;;;;;;;;5090206;28;19954;-47
2023/12/02 13:58:08;;;;;;;;;;;;;;;;;;5092291;28;20300;-47
2023/12/02 14:00:34;;;;;;;;;;;;;;;;;;5100739;28;19969;-46
2023/12/02 14:03:00;;;;;;;;;;;;;;;;;;5111601;28;19912;-48
2023/12/02 14:05:27;;;;;;;;;;;;;;;;;;5108732;28;19912;-46
2023/12/02 14:07:53;;;;;;;;;;;;;;;;;;5092180;28;19938;-48
2023/12/02 14:10:21;;;;;;;;;;;;;;;;;;5100888;28;19922;-47
2023/12/02 14:12:48;;;;;;;;;;;;;;;;;;5093510;28;19912;-48
2023/12/02 14:15:14;;;;;;;;;;;;;;;;;;5104465;28;19981;-47
2023/12/02 14:17:40;;;;;;;;;;;;;;;;;;5093854;28;19912;-48
2023/12/02 14:20:06;;;;;;;;;;;;;;;;;;5097214;28;19959;-47
2023/12/02 14:22:32;;;;;;;;;;;;;;;;;;5109192;28;19908;-48
2023/12/02 14:24:58;;;;;;;;;;;;;;;;;;5105533;28;19977;-47
2023/12/02 14:27:24;;;;;;;;;;;;;;;;;;5089437;28;20257;-47
2023/12/02 14:29:51;;;;;;;;;;;;;;;;;;5079425;28;19913;-48
2023/12/02 14:32:19;;;;;;;;;;;;;;;;;;5098640;28;20045;-47
2023/12/02 14:34:45;;;;;;;;;;;;;;;;;;5114573;28;19919;-47
2023/12/02 14:37:11;;;;;;;;;;;;;;;;;;5103543;28;20483;-48
2023/12/02 14:39:37;;;;;;;;;;;;;;;;;;5093628;28;20304;-48
2023/12/02 14:42:03;;;;;;;;;;;;;;;;;;5094454;28;19958;-47
2023/12/02 14:44:32;;;;;;;;;;;;;;;;;;5093255;28;19924;-47
2023/12/02 14:46:59;;;;;;;;;;;;;;;;;;5093106;28;19920;-49
2023/12/02 14:49:26;;;;;;;;;;;;;;;;;;5104293;28;19915;-48
2023/12/02 14:51:56;;;;;;;;;;;;;;;;;;5109208;28;19981;-47
2023/12/02 14:54:23;;;;;;;;;;;;;;;;;;5105017;28;19920;-47
2023/12/02 14:56:49;;;;;;;;;;;;;;;;;;5105465;28;19926;-47
2023/12/02 14:59:15;;;;;;;;;;;;;;;;;;5094742;28;19919;-47
2023/12/02 15:01:42;;;;;;;;;;;;;;;;;;5106171;28;19919;-51
2023/12/02 15:04:09;;;;;;;;;;;;;;;;;;5100609;28;19965;-47
2023/12/02 15:06:35;;;;;;;;;;;;;;;;;;5093531;28;19978;-48
2023/12/02 15:09:01;;;;;;;;;;;;;;;;;;5094424;28;19961;-48
2023/12/02 15:11:27;;;;;;;;;;;;;;;;;;5103993;28;19956;-47
2023/12/02 15:13:54;;;;;;;;;;;;;;;;;;5112557;28;19911;-46
2023/12/02 15:16:20;;;;;;;;;;;;;;;;;;5091178;28;19982;-45
2023/12/02 15:18:46;;;;;;;;;;;;;;;;;;5096274;28;19912;-45
2023/12/02 15:21:12;;;;;;;;;;;;;;;;;;5094937;28;20396;-47
2023/12/02 15:23:38;;;;;;;;;;;;;;;;;;5108043;28;19912;-46
2023/12/02 15:26:04;;;;;;;;;;;;;;;;;;5103508;28;19966;-46
2023/12/02 15:28:30;;;;;;;;;;;;;;;;;;5102418;28;19919;-47
2023/12/02 15:30:56;;;;;;;;;;;;;;;;;;5107164;28;20338;-47
2023/12/02 15:33:22;;;;;;;;;;;;;;;;;;5092686;28;19908;-47
2023/12/02 15:35:49;;;;;;;;;;;;;;;;;;5090919;28;19955;-48
2023/12/02 15:38:15;;;;;;;;;;;;;;;;;;5094275;28;20403;-47
2023/12/02 15:40:41;;;;;;;;;;;;;;;;;;5093813;28;19958;-48
2023/12/02 15:43:07;;;;;;;;;;;;;;;;;;5094116;28;19951;-47
2023/12/02 15:45:33;;;;;;;;;;;;;;;;;;5094528;28;19912;-49
2023/12/02 15:47:59;;;;;;;;;;;;;;;;;;5094648;28;19969;-48
2023/12/02 15:50:25;;;;;;;;;;;;;;;;;;5094872;28;20293;-47
2023/12/02 15:52:51;;;;;;;;;;;;;;;;;;5094336;28;19969;-47
2023/12/02 15:55:17;;;;;;;;;;;;;;;;;;5087079;28;20357;-47
2023/12/02 15:57:43;;;;;;;;;;;;;;;;;;5079927;28;20285;-47
2023/12/02 16:00:09;;;;;;;;;;;;;;;;;;5094263;28;19915;-47
2023/12/02 16:02:37;;;;;;;;;;;;;;;;;;5094216;28;19912;-50
2023/12/02 16:05:03;;;;;;;;;;;;;;;;;;5094261;28;19912;-47
2023/12/02 16:07:29;;;;;;;;;;;;;;;;;;5094817;28;20376;-47
2023/12/02 16:09:55;;;;;;;;;;;;;;;;;;5094328;28;19909;-48
2023/12/02 16:12:21;;;;;;;;;;;;;;;;;;5079821;28;19999;-47
2023/12/02 16:14:47;;;;;;;;;;;;;;;;;;5073719;28;20292;-47
2023/12/02 16:17:14;;;;;;;;;;;;;;;;;;5074010;28;19919;-46
2023/12/02 16:19:40;;;;;;;;;;;;;;;;;;5073803;28;20012;-47
2023/12/02 16:22:06;;;;;;;;;;;;;;;;;;5072733;28;19948;-47
2023/12/02 16:24:32;;;;;;;;;;;;;;;;;;5073580;28;19917;-46
2023/12/02 16:26:58;;;;;;;;;;;;;;;;;;5072182;28;19912;-47
2023/12/02 16:29:24;;;;;;;;;;;;;;;;;;5073437;28;19912;-48
2023/12/02 16:31:51;;;;;;;;;;;;;;;;;;5073338;28;19955;-46
2023/12/02 16:34:17;;;;;;;;;;;;;;;;;;5075102;28;19931;-47
2023/12/02 16:36:43;;;;;;;;;;;;;;;;;;5093739;28;19912;-47
2023/12/02 16:39:09;;;;;;;;;;;;;;;;;;5093793;28;19919;-46